Time;durP1;ratioP1;P1;durP2;ratioP2;P2;SDS_P1;SDS_P2;PMS_P1;PMS_P2;Temp;Humidity;BMP_temperature;BMP_pressure;BME280_temperature;BME280_humidity;BME280_pressure;Samples;Min_cycle;Max_cycle;Signal;HPM_P1;HPM_P2
2023/03/29 00:00:44;;;;;;;4.45;2.30;;;;;;;5.34;100.00;101681.16;5130867;27;20065;-35
2023/03/29 00:03:09;;;;;;;2.80;1.60;;;;;;;5.36;100.00;101697.91;5131085;27;20471;-35
2023/03/29 00:05:37;;;;;;;2.93;1.77;;;;;;;5.35;100.00;101673.94;5130645;27;20447;-35
2023/03/29 00:08:03;;;;;;;3.38;1.75;;;;;;;5.37;100.00;101683.50;5131107;27;20085;-35
2023/03/29 00:10:31;;;;;;;3.63;1.80;;;;;;;5.39;100.00;101672.59;5130844;27;20035;-35
2023/03/29 00:12:56;;;;;;;4.75;1.75;;;;;;;5.39;100.00;101676.09;5121378;27;20774;-36
2023/03/29 00:15:22;;;;;;;3.03;1.80;;;;;;;5.34;100.00;101657.03;5117357;28;20106;-35
2023/03/29 00:17:48;;;;;;;3.17;1.70;;;;;;;5.43;100.00;101671.25;5117071;28;20363;-35
2023/03/29 00:20:13;;;;;;;2.67;1.77;;;;;;;5.44;100.00;101664.84;5117494;28;20039;-36
2023/03/29 00:22:43;;;;;;;3.07;1.40;;;;;;;5.46;100.00;101661.97;5117152;28;20023;-35
2023/03/29 00:25:09;;;;;;;2.83;1.73;;;;;;;5.44;100.00;101662.16;5117646;28;20016;-35
2023/03/29 00:27:35;;;;;;;2.58;1.60;;;;;;;5.35;100.00;101647.13;5117026;28;20355;-35
2023/03/29 00:30:02;;;;;;;3.78;1.48;;;;;;;5.42;100.00;101642.75;5116773;28;20034;-35
2023/03/29 00:32:27;;;;;;;2.97;1.73;;;;;;;5.46;100.00;101643.22;5116344;28;20069;-35
2023/03/29 00:34:53;;;;;;;2.35;1.90;;;;;;;5.43;100.00;101642.56;5117223;28;20055;-35
2023/03/29 00:37:19;;;;;;;4.25;1.63;;;;;;;5.42;100.00;101648.13;5116550;28;20027;-35
2023/03/29 00:39:45;;;;;;;2.90;1.80;;;;;;;5.38;100.00;101636.06;5116869;28;20024;-35
2023/03/29 00:42:12;;;;;;;2.58;1.60;;;;;;;5.43;100.00;101644.41;5116447;28;20027;-35
2023/03/29 00:44:53;;;;;;;3.20;1.70;;;;;;;5.42;100.00;101642.75;5117021;28;20515;-35
2023/03/29 00:47:23;;;;;;;3.05;1.40;;;;;;;5.50;100.00;101655.25;5116352;28;20367;-35
2023/03/29 00:49:51;;;;;;;5.53;1.90;;;;;;;5.52;100.00;101642.50;5116154;27;20028;-35
2023/03/29 00:52:20;;;;;;;2.33;1.55;;;;;;;5.51;100.00;101635.47;5116319;28;20035;-35
2023/03/29 00:54:54;;;;;;;2.28;1.80;;;;;;;5.50;100.00;101640.00;5115998;28;20019;-36
2023/03/29 00:57:21;;;;;;;2.25;1.50;;;;;;;5.51;100.00;101632.78;5115990;28;20031;-36
2023/03/29 00:59:48;;;;;;;3.13;1.63;;;;;;;5.46;100.00;101619.06;5116516;28;20107;-35
2023/03/29 01:02:20;;;;;;;3.75;1.77;;;;;;;5.50;100.00;101617.69;5116828;28;20043;-36
2023/03/29 01:04:52;;;;;;;3.00;1.55;;;;;;;5.55;100.00;101620.69;5116381;28;20046;-35
2023/03/29 01:07:24;;;;;;;3.53;1.90;;;;;;;5.54;100.00;101613.66;5116694;28;20020;-35
2023/03/29 01:09:54;;;;;;;2.63;1.67;;;;;;;5.56;100.00;101611.59;5116089;28;20034;-35
2023/03/29 01:12:25;;;;;;;3.72;1.55;;;;;;;5.59;100.00;101622.00;5116794;28;20089;-35
2023/03/29 01:14:58;;;;;;;7.50;2.45;;;;;;;5.56;100.00;101611.59;5115973;28;20030;-35
2023/03/29 01:17:24;;;;;;;2.67;1.63;;;;;;;5.61;100.00;101611.91;5116169;28;20099;-35
2023/03/29 01:20:06;;;;;;;3.30;2.10;;;;;;;5.57;100.00;101610.63;5116710;28;20420;-35
2023/03/29 01:22:51;;;;;;;5.03;1.80;;;;;;;5.61;100.00;101619.94;5115745;28;20012;-35
2023/03/29 01:25:35;;;;;;;4.28;1.80;;;;;;;5.52;100.00;101600.41;5115006;28;20065;-35
2023/03/29 01:28:22;;;;;;;2.58;1.80;;;;;;;5.60;100.00;101612.91;5116202;28;20019;-35
2023/03/29 01:30:52;;;;;;;2.07;1.57;;;;;;;5.60;100.00;101610.25;5115944;28;20033;-35
2023/03/29 01:33:22;;;;;;;4.43;2.08;;;;;;;5.60;100.00;101607.56;5116078;28;20381;-35
2023/03/29 01:36:00;;;;;;;3.85;1.92;;;;;;;5.54;100.00;101586.81;5115477;28;20452;-35
2023/03/29 01:38:32;;;;;;;3.03;1.70;;;;;;;5.59;100.00;101590.63;5115502;28;20046;-35
2023/03/29 01:40:58;;;;;;;4.68;2.55;;;;;;;5.58;100.00;101591.66;5115648;28;20102;-35
2023/03/29 01:43:35;;;;;;;3.77;1.90;;;;;;;5.58;100.00;101596.19;5116107;28;20395;-35
2023/03/29 01:46:06;;;;;;;3.50;1.95;;;;;;;5.55;100.00;101591.16;5116131;28;20070;-35
2023/03/29 01:48:38;;;;;;;4.43;1.90;;;;;;;5.48;100.00;101574.97;5115501;28;20367;-35
2023/03/29 01:51:28;;;;;;;7.15;2.00;;;;;;;5.57;100.00;101583.78;5114884;28;20027;-35
2023/03/29 01:54:04;;;;;;;2.70;1.92;;;;;;;5.53;100.00;101569.06;5115395;28;20126;-35
2023/03/29 01:56:35;;;;;;;2.88;1.77;;;;;;;5.53;100.00;101571.75;5115088;28;20028;-35
2023/03/29 01:59:05;;;;;;;2.80;1.70;;;;;;;5.59;100.00;101568.34;5115030;28;20031;-35
2023/03/29 02:01:37;;;;;;;3.88;1.80;;;;;;;5.60;100.00;101568.13;5115276;28;20096;-35
2023/03/29 02:04:06;;;;;;;2.78;1.60;;;;;;;5.58;100.00;101561.31;5114946;28;20025;-35
2023/03/29 02:06:32;;;;;;;3.03;1.90;;;;;;;5.61;100.00;101563.59;5115186;28;20027;-35
2023/03/29 02:08:58;;;;;;;4.50;2.05;;;;;;;5.63;100.00;101564.28;5115597;28;20034;-35
2023/03/29 02:11:26;;;;;;;4.05;2.10;;;;;;;5.64;100.00;101558.72;5114861;28;20366;-35
2023/03/29 02:13:51;;;;;;;4.22;1.85;;;;;;;5.59;100.00;101549.56;5114735;28;20065;-35
2023/03/29 02:16:18;;;;;;;3.38;1.95;;;;;;;5.63;100.00;101558.91;5114491;28;20463;-35
2023/03/29 02:18:47;;;;;;;2.92;1.90;;;;;;;5.58;100.00;101540.66;5114688;28;20020;-36
2023/03/29 02:21:20;;;;;;;5.10;2.10;;;;;;;5.52;100.00;101532.53;5115124;28;20027;-36
2023/03/29 02:23:48;;;;;;;2.90;1.75;;;;;;;5.57;100.00;101535.50;5114860;28;20110;-36
2023/03/29 02:26:14;;;;;;;6.32;2.42;;;;;;;5.61;100.00;101542.13;5115106;28;20038;-36
2023/03/29 02:28:41;;;;;;;2.28;1.60;;;;;;;5.61;100.00;101529.59;5114469;28;20019;-36
2023/03/29 02:31:18;;;;;;;5.18;2.20;;;;;;;5.65;100.00;101535.41;5114995;28;20117;-36
2023/03/29 02:33:57;;;;;;;4.18;1.85;;;;;;;5.67;100.00;101530.72;5114988;28;20498;-36
2023/03/29 02:36:40;;;;;;;4.85;2.10;;;;;;;5.66;100.00;101529.88;5114658;28;20332;-36
2023/03/29 02:39:08;;;;;;;3.25;1.85;;;;;;;5.69;100.00;101520.59;5114340;28;20055;-36
2023/03/29 02:41:37;;;;;;;5.07;2.10;;;;;;;5.70;100.00;101522.28;5114200;28;20020;-36
2023/03/29 02:44:07;;;;;;;3.63;1.85;;;;;;;5.71;100.00;101523.97;5113947;28;20024;-36
2023/03/29 02:46:33;;;;;;;4.45;1.90;;;;;;;5.73;100.00;101526.44;5113636;28;20068;-36
2023/03/29 02:48:59;;;;;;;4.15;2.00;;;;;;;5.73;100.00;101521.91;5114233;28;20451;-36
2023/03/29 02:51:30;;;;;;;9.35;2.00;;;;;;;5.73;100.00;101508.50;5114290;28;20027;-36
2023/03/29 02:54:04;;;;;;;4.25;2.40;;;;;;;5.79;100.00;101512.28;5114173;28;20027;-36
2023/03/29 02:56:43;;;;;;;4.15;2.22;;;;;;;5.79;100.00;101501.56;5113864;28;20015;-36
2023/03/29 02:59:10;;;;;;;3.10;1.85;;;;;;;5.77;100.00;101504.44;5114722;28;20023;-36
2023/03/29 03:01:36;;;;;;;3.58;1.90;;;;;;;5.71;100.00;101493.59;5113162;28;20124;-36
2023/03/29 03:04:02;;;;;;;4.20;1.87;;;;;;;5.76;100.00;101494.72;5114097;28;20455;-36
2023/03/29 03:06:28;;;;;;;2.78;1.73;;;;;;;5.79;100.00;101506.94;5113830;28;20043;-36
2023/03/29 03:08:53;;;;;;;3.30;1.70;;;;;;;5.80;100.00;101500.53;5114373;28;20088;-36
2023/03/29 03:11:19;;;;;;;3.80;1.83;;;;;;;5.81;100.00;101500.38;5114028;28;20036;-36
2023/03/29 03:13:44;;;;;;;5.05;2.40;;;;;;;5.85;100.00;101503.50;5113740;28;20023;-36
2023/03/29 03:16:09;;;;;;;4.68;1.90;;;;;;;5.86;100.00;101495.28;5114316;28;20058;-36
2023/03/29 03:18:35;;;;;;;4.67;1.93;;;;;;;5.87;100.00;101496.13;5113930;28;20027;-36
2023/03/29 03:21:00;;;;;;;2.97;1.67;;;;;;;5.87;100.00;101483.53;5113868;28;20026;-36
2023/03/29 03:23:26;;;;;;;3.03;1.57;;;;;;;5.86;100.00;101478.34;5113895;28;20031;-36
2023/03/29 03:25:52;;;;;;;2.58;1.55;;;;;;;5.91;100.00;101486.69;5113605;28;20020;-36
2023/03/29 03:28:17;;;;;;;3.42;1.83;;;;;;;5.92;100.00;101489.22;5113555;28;20027;-36
2023/03/29 03:30:43;;;;;;;3.63;1.70;;;;;;;5.92;100.00;101478.47;5114108;28;20020;-36
2023/03/29 03:33:10;;;;;;;5.25;1.65;;;;;;;5.92;100.00;101481.16;5113773;28;20020;-36
2023/03/29 03:35:37;;;;;;;2.25;1.50;;;;;;;5.93;100.00;101474.75;5114326;28;20072;-36
2023/03/29 03:38:02;;;;;;;2.38;1.60;;;;;;;5.97;100.00;101480.59;5114309;28;20031;-36
2023/03/29 03:40:28;;;;;;;3.40;1.50;;;;;;;5.96;100.00;101478.13;5113738;28;20038;-36
2023/03/29 03:42:53;;;;;;;2.83;1.57;;;;;;;6.01;100.00;101475.69;5113514;28;20482;-36
2023/03/29 03:45:19;;;;;;;3.83;1.60;;;;;;;5.99;100.00;101477.72;5114078;28;20028;-36
2023/03/29 03:47:44;;;;;;;3.90;1.55;;;;;;;6.01;100.00;101481.06;5115112;28;20031;-36
2023/03/29 03:50:10;;;;;;;4.28;1.63;;;;;;;6.03;100.00;101484.38;5118455;28;20019;-36
2023/03/29 03:52:35;;;;;;;3.05;1.40;;;;;;;5.99;100.00;101472.34;5117559;27;20030;-36
2023/03/29 03:55:03;;;;;;;3.20;1.57;;;;;;;6.05;100.00;101488.56;5117183;28;20016;-36
2023/03/29 03:57:28;;;;;;;3.42;1.90;;;;;;;6.05;100.00;101483.19;5117660;27;20098;-36
2023/03/29 03:59:53;;;;;;;1.73;1.42;;;;;;;6.06;100.00;101482.19;5117151;28;20111;-36
2023/03/29 04:02:19;;;;;;;3.13;1.67;;;;;;;6.06;100.00;101490.22;5117085;27;20044;-36
2023/03/29 04:04:45;;;;;;;3.17;1.35;;;;;;;6.07;100.00;101485.69;5117844;28;20047;-36
2023/03/29 04:07:13;;;;;;;2.88;1.52;;;;;;;6.08;100.00;101476.63;5117721;28;20099;-35
2023/03/29 04:09:38;;;;;;;2.42;1.48;;;;;;;6.08;100.00;101476.63;5117470;28;20027;-35
2023/03/29 04:12:04;;;;;;;5.18;2.17;;;;;;;6.06;100.00;101467.91;5117627;28;20439;-36
2023/03/29 04:14:30;;;;;;;2.97;1.60;;;;;;;6.10;100.00;101475.41;5117382;28;20039;-35
2023/03/29 04:16:56;;;;;;;4.45;1.60;;;;;;;6.07;100.00;101461.53;5116719;28;20024;-35
2023/03/29 04:19:21;;;;;;;2.10;1.60;;;;;;;6.09;100.00;101467.53;5117336;28;20030;-35
2023/03/29 04:21:48;;;;;;;3.90;1.80;;;;;;;6.03;100.00;101450.31;5116391;28;20106;-35
2023/03/29 04:24:14;;;;;;;3.38;1.65;;;;;;;6.07;100.00;101450.78;5117160;27;20463;-35
2023/03/29 04:26:39;;;;;;;;;;;;;;;6.12;100.00;101459.94;5117274;28;20026;-34
2023/03/29 04:29:05;;;;;;;2.53;1.70;;;;;;;6.10;100.00;101453.06;5117311;28;19903;-35
2023/03/29 04:31:31;;;;;;;3.58;1.77;;;;;;;6.09;100.00;101446.03;5117605;28;20261;-35
2023/03/29 04:33:56;;;;;;;2.83;1.67;;;;;;;6.09;100.00;101462.16;5116942;28;20517;-35
2023/03/29 04:36:22;;;;;;;3.50;1.92;;;;;;;6.11;100.00;101454.78;5117336;28;20023;-35
2023/03/29 04:38:47;;;;;;;2.93;1.77;;;;;;;6.11;100.00;101454.78;5116350;28;20117;-35
2023/03/29 04:41:14;;;;;;;3.10;1.70;;;;;;;6.10;100.00;101450.41;5116562;28;20020;-35
2023/03/29 04:43:40;;;;;;;2.58;1.50;;;;;;;6.11;100.00;101452.91;5116463;28;20023;-35
2023/03/29 04:46:06;;;;;;;3.13;1.90;;;;;;;6.06;100.00;101438.38;5117014;27;20080;-35
2023/03/29 04:48:32;;;;;;;2.88;1.60;;;;;;;6.07;100.00;101445.41;5115208;28;20103;-35
2023/03/29 04:50:58;;;;;;;2.95;1.92;;;;;;;6.10;100.00;101443.19;5116457;28;20497;-35
2023/03/29 04:53:24;;;;;;;4.20;2.15;;;;;;;6.11;100.00;101438.66;5116637;28;20028;-35
2023/03/29 04:55:49;;;;;;;5.50;1.92;;;;;;;6.16;100.00;101444.31;5116362;28;20031;-35
2023/03/29 04:58:15;;;;;;;4.70;2.00;;;;;;;6.13;100.00;101431.22;5116150;28;20020;-35
2023/03/29 05:00:41;;;;;;;2.78;2.00;;;;;;;6.19;100.00;101433.16;5116203;28;20425;-35
2023/03/29 05:03:10;;;;;;;3.28;1.92;;;;;;;6.17;100.00;101433.34;5116447;28;20030;-35
2023/03/29 05:05:35;;;;;;;4.00;1.80;;;;;;;6.19;100.00;101430.47;5116145;28;20026;-35
2023/03/29 05:08:02;;;;;;;2.90;1.80;;;;;;;6.22;100.00;101430.13;5116293;28;20015;-35
2023/03/29 05:10:27;;;;;;;2.25;1.70;;;;;;;6.23;100.00;101430.94;5116615;28;20023;-35
2023/03/29 05:12:53;;;;;;;4.35;2.08;;;;;;;6.24;100.00;101427.22;5115885;28;20067;-36
2023/03/29 05:15:21;;;;;;;3.03;1.75;;;;;;;6.25;100.00;101429.75;5115954;28;20099;-35
2023/03/29 05:17:47;;;;;;;5.35;2.10;;;;;;;6.26;100.00;101427.88;5115520;28;20027;-35
2023/03/29 05:20:13;;;;;;;3.20;2.10;;;;;;;6.21;100.00;101419.56;5116348;27;20027;-35
2023/03/29 05:22:39;;;;;;;4.18;2.20;;;;;;;6.27;100.00;101418.81;5116108;28;20043;-35
2023/03/29 05:25:05;;;;;;;4.17;2.23;;;;;;;6.27;100.00;101419.63;5116329;28;20432;-35
2023/03/29 05:27:30;;;;;;;;;;;;;;;6.33;100.00;101426.94;5115933;28;20047;-35
2023/03/29 05:29:56;;;;;;;2.80;1.83;;;;;;;6.30;100.00;101432.69;5115829;28;20343;-35
2023/03/29 05:32:21;;;;;;;2.87;1.73;;;;;;;6.28;100.00;101426.66;5115477;28;20030;-36
2023/03/29 05:34:47;;;;;;;4.55;2.00;;;;;;;6.36;100.00;101434.63;5115169;28;20016;-35
2023/03/29 05:37:12;;;;;;;6.10;2.30;;;;;;;6.39;100.00;101433.41;5115091;28;20032;-35
2023/03/29 05:39:38;;;;;;;5.17;2.13;;;;;;;6.42;100.00;101435.72;5115744;28;20363;-35
2023/03/29 05:42:04;;;;;;;4.22;2.33;;;;;;;6.44;100.00;101439.91;5115326;28;20049;-36
2023/03/29 05:44:30;;;;;;;3.92;2.03;;;;;;;6.45;100.00;101438.03;5115355;28;20042;-36
2023/03/29 05:46:56;;;;;;;3.63;2.03;;;;;;;6.47;100.00;101435.97;5115820;28;20023;-36
2023/03/29 05:49:21;;;;;;;4.95;2.20;;;;;;;6.48;100.00;101443.00;5114980;28;20367;-36
2023/03/29 05:51:47;;;;;;;3.22;2.25;;;;;;;6.50;100.00;101443.69;5115214;28;20085;-36
2023/03/29 05:54:13;;;;;;;4.33;2.20;;;;;;;6.53;100.00;101443.28;5115744;28;20030;-36
2023/03/29 05:56:39;;;;;;;3.92;2.30;;;;;;;6.53;100.00;101448.66;5114768;28;20023;-36
2023/03/29 05:59:04;;;;;;;4.70;2.23;;;;;;;6.58;100.00;101456.16;5115314;28;20076;-36
2023/03/29 06:01:29;;;;;;;5.07;2.63;;;;;;;6.59;100.00;101450.59;5115510;28;20052;-36
2023/03/29 06:03:56;;;;;;;7.23;2.60;;;;;;;6.53;100.00;101431.69;5115319;28;20100;-36
2023/03/29 06:06:22;;;;;;;4.32;2.17;;;;;;;6.65;100.00;101457.91;5115747;28;20027;-36
2023/03/29 06:08:47;;;;;;;4.55;2.40;;;;;;;6.69;100.00;101458.34;5115161;28;20340;-36
2023/03/29 06:11:14;;;;;;;5.73;2.83;;;;;;;6.71;100.00;101448.22;5114310;27;20106;-36
2023/03/29 06:13:40;;;;;;;4.10;2.30;;;;;;;6.69;100.00;101440.38;5115280;28;20665;-36
2023/03/29 06:16:07;;;;;;;3.33;2.30;;;;;;;6.75;100.00;101437.94;5114766;28;20024;-36
2023/03/29 06:18:33;;;;;;;4.82;2.50;;;;;;;6.78;100.00;101440.22;5115174;28;20024;-36
2023/03/29 06:21:00;;;;;;;5.80;2.40;;;;;;;6.80;100.00;101446.25;5114937;28;20043;-36
2023/03/29 06:23:26;;;;;;;5.13;2.40;;;;;;;6.82;100.00;101447.72;5115406;28;20049;-36
2023/03/29 06:25:51;;;;;;;3.95;2.15;;;;;;;6.86;100.00;101450.88;5115154;28;20015;-36
2023/03/29 06:28:17;;;;;;;3.50;2.30;;;;;;;6.88;100.00;101457.72;5114268;28;20475;-36
2023/03/29 06:30:44;;;;;;;;;;;;;;;6.92;100.00;101458.97;5114935;28;20027;-36
2023/03/29 06:33:10;;;;;;;4.00;2.15;;;;;;;6.95;100.00;101453.25;5113217;28;19904;-36
2023/03/29 06:35:39;;;;;;;3.03;2.42;;;;;;;6.98;100.00;101452.03;5114699;28;20039;-36
2023/03/29 06:38:04;;;;;;;4.38;2.60;;;;;;;7.00;100.00;101451.84;5114408;28;20072;-36
2023/03/29 06:40:30;;;;;;;4.50;2.50;;;;;;;7.03;100.00;101440.66;5113982;28;20023;-36
2023/03/29 06:42:59;;;;;;;3.20;2.30;;;;;;;7.05;100.00;101444.84;5114203;28;20024;-36
2023/03/29 06:45:25;;;;;;;3.60;2.15;;;;;;;7.06;100.00;101449.19;5114898;28;20031;-36
2023/03/29 06:47:51;;;;;;;5.35;2.95;;;;;;;7.07;100.00;101441.94;5113928;28;20023;-36
2023/03/29 06:50:17;;;;;;;5.82;2.28;;;;;;;7.11;100.00;101445.94;5114580;28;20038;-36
2023/03/29 06:52:43;;;;;;;3.63;2.17;;;;;;;7.13;100.00;101441.19;5115034;28;20038;-36
2023/03/29 06:55:10;;;;;;;4.82;2.40;;;;;;;7.18;100.00;101444.13;5114579;28;20328;-36
2023/03/29 06:57:37;;;;;;;5.50;2.60;;;;;;;7.21;100.00;101446.41;5114433;28;20016;-34
2023/03/29 07:00:15;;;;;;;4.10;2.30;;;;;;;7.27;100.00;101453.75;5114144;28;20027;-35
2023/03/29 07:02:41;;;;;;;5.47;2.58;;;;;;;7.32;100.00;101454.00;5114676;28;20520;-35
2023/03/29 07:05:10;;;;;;;6.70;2.55;;;;;;;7.32;100.00;101442.38;5113142;28;20027;-35
2023/03/29 07:10:27;;;;;;;4.65;2.83;;;;;;;7.42;100.00;101456.34;5114646;28;20164;-35
2023/03/29 07:12:53;;;;;;;4.38;2.35;;;;;;;7.41;100.00;101446.59;5114052;28;20462;-35
2023/03/29 07:15:20;;;;;;;4.05;2.22;;;;;;;7.49;100.00;101460.72;5114360;28;20470;-36
2023/03/29 07:17:48;;;;;;;3.97;2.33;;;;;;;7.51;100.00;101451.63;5114251;28;20375;-34
2023/03/29 07:20:14;;;;;;;4.50;2.65;;;;;;;7.56;100.00;101458.06;5113550;28;20023;-34
2023/03/29 07:22:40;;;;;;;4.53;2.38;;;;;;;7.59;100.00;101455.00;5115124;28;20020;-35
2023/03/29 07:25:08;;;;;;;3.92;2.22;;;;;;;7.57;100.00;101454.38;5118684;28;20082;-35
2023/03/29 07:27:37;;;;;;;6.22;2.83;;;;;;;7.66;100.00;101457.72;5118493;28;20015;-35
2023/03/29 07:30:09;;;;;;;4.43;2.60;;;;;;;7.69;100.00;101462.72;5118495;28;20028;-35
2023/03/29 07:32:35;;;;;;;6.03;3.28;;;;;;;7.73;100.00;101469.41;5118168;27;20027;-36
2023/03/29 07:35:04;;;;;;;;;;;;;;;7.79;100.00;101467.78;5118337;28;20020;-35
2023/03/29 07:37:29;;;;;;;4.32;2.55;;;;;;;7.74;100.00;101465.66;5118651;28;19927;-36
2023/03/29 07:39:55;;;;;;;5.65;2.40;;;;;;;7.83;100.00;101477.13;5118328;28;20024;-38
2023/03/29 07:42:21;;;;;;;5.47;2.75;;;;;;;7.84;100.00;101478.78;5117702;27;20389;-39
2023/03/29 07:44:47;;;;;;;5.85;3.10;;;;;;;7.87;100.00;101481.09;5118302;28;20047;-35
2023/03/29 07:47:13;;;;;;;5.03;2.55;;;;;;;7.88;100.00;101475.50;5117236;28;20455;-35
2023/03/29 07:49:38;;;;;;;4.82;2.90;;;;;;;7.91;100.00;101482.34;5118446;28;20023;-35
2023/03/29 07:52:04;;;;;;;4.93;2.75;;;;;;;7.92;100.00;101486.72;5118068;28;20033;-35
2023/03/29 07:54:31;;;;;;;7.93;3.22;;;;;;;7.97;100.00;101490.47;5118166;28;20049;-35
2023/03/29 07:56:57;;;;;;;5.88;2.75;;;;;;;8.00;100.00;101484.69;5117132;28;20035;-35
2023/03/29 07:59:22;;;;;;;5.35;3.08;;;;;;;8.03;100.00;101485.31;5117723;28;20028;-35
2023/03/29 08:01:47;;;;;;;5.60;3.50;;;;;;;8.06;100.00;101482.25;5117063;28;20348;-35
2023/03/29 08:04:13;;;;;;;6.37;3.10;;;;;;;8.08;100.00;101485.56;5117626;28;20149;-35
2023/03/29 08:06:38;;;;;;;3.90;2.63;;;;;;;8.09;100.00;101481.81;5117537;28;20035;-36
2023/03/29 08:09:03;;;;;;;5.00;2.73;;;;;;;8.12;100.00;101478.75;5117459;28;20456;-35
2023/03/29 08:11:29;;;;;;;6.03;3.27;;;;;;;8.18;100.00;101478.75;5117507;28;20460;-35
2023/03/29 08:13:55;;;;;;;5.43;3.43;;;;;;;8.14;100.00;101468.59;5117055;28;20026;-35
2023/03/29 08:16:20;;;;;;;4.90;3.03;;;;;;;8.20;100.00;101478.59;5117958;28;20025;-35
2023/03/29 08:18:45;;;;;;;4.60;3.20;;;;;;;8.25;100.00;101481.50;5117245;28;20027;-35
2023/03/29 08:21:13;;;;;;;6.70;3.33;;;;;;;8.17;100.00;101473.59;5116872;28;20015;-35
2023/03/29 08:23:39;;;;;;;5.78;3.30;;;;;;;8.27;100.00;101482.97;5116457;28;20463;-34
2023/03/29 08:26:04;;;;;;;5.30;2.90;;;;;;;8.25;100.00;101486.91;5116715;28;20016;-35
2023/03/29 08:28:30;;;;;;;5.70;3.05;;;;;;;8.20;100.00;101470.50;5116750;28;20015;-35
2023/03/29 08:30:55;;;;;;;5.77;3.30;;;;;;;8.15;100.00;101448.69;5116837;28;20038;-36
2023/03/29 08:33:21;;;;;;;5.47;3.50;;;;;;;8.25;100.00;101465.34;5116002;28;20111;-35
2023/03/29 08:35:47;;;;;;;6.55;3.65;;;;;;;8.29;100.00;101460.38;5116451;28;20516;-35
2023/03/29 08:38:13;;;;;;;6.60;3.45;;;;;;;8.42;100.00;101474.75;5116649;28;20382;-36
2023/03/29 08:40:38;;;;;;;6.55;3.65;;;;;;;8.51;100.00;101462.78;5117417;28;20026;-35
2023/03/29 08:43:03;;;;;;;6.47;3.83;;;;;;;8.62;100.00;101468.59;5117123;28;20023;-36
2023/03/29 08:45:51;;;;;;;6.03;3.30;;;;;;;8.71;100.00;101464.69;5115930;28;20032;-36
2023/03/29 08:48:30;;;;;;;7.72;3.50;;;;;;;8.75;100.00;101465.97;5116764;28;20443;-35
2023/03/29 08:51:08;;;;;;;5.18;3.00;;;;;;;8.81;100.00;101467.84;5116727;28;20356;-36
2023/03/29 08:53:35;;;;;;;6.35;3.65;;;;;;;8.87;100.00;101466.19;5116318;28;20045;-36
2023/03/29 08:56:11;;;;;;;6.10;3.20;;;;;;;8.90;100.00;101469.31;5116617;27;20030;-36
2023/03/29 08:58:37;;;;;;;5.78;3.42;;;;;;;8.82;100.00;101437.13;5116545;28;20032;-36
2023/03/29 09:01:05;;;;;;;6.00;3.72;;;;;;;9.05;100.00;101468.28;5116151;28;20512;-36
2023/03/29 09:03:36;;;;;;;6.65;3.97;;;;;;;9.08;100.00;101444.44;5115987;27;20040;-35
2023/03/29 09:06:08;;;;;;;5.72;3.85;;;;;;;9.17;100.00;101445.03;5116212;28;20031;-36
2023/03/29 09:08:39;;;;;;;5.63;3.70;;;;;;;9.33;100.00;101460.03;5116305;28;20040;-36
2023/03/29 09:11:20;;;;;;;5.45;3.70;;;;;;;9.44;100.00;101459.38;5116896;28;20032;-36
2023/03/29 09:14:23;;;;;;;6.32;3.65;;;;;;;9.57;100.00;101450.47;5116469;27;20026;-36
2023/03/29 09:17:06;;;;;;;4.90;3.33;;;;;;;9.71;100.00;101455.63;5115945;28;20019;-36
2023/03/29 09:19:40;;;;;;;4.68;3.47;;;;;;;9.79;100.00;101460.78;5115869;28;20102;-36
2023/03/29 09:22:36;;;;;;;6.40;4.00;;;;;;;9.82;100.00;101464.94;5115807;27;20019;-35
2023/03/29 09:25:02;;;;;;;8.45;4.20;;;;;;;9.76;100.00;101452.25;5116025;28;20019;-35
2023/03/29 09:27:43;;;;;;;6.90;4.10;;;;;;;9.85;100.00;101467.22;5115978;28;20031;-35
2023/03/29 09:30:25;;;;;;;5.38;4.18;;;;;;;9.85;100.00;101456.41;5116267;28;20030;-36
2023/03/29 09:32:59;;;;;;;8.48;4.05;;;;;;;9.87;100.00;101459.75;5116226;28;20103;-36
2023/03/29 09:35:37;;;;;;;6.40;4.32;;;;;;;9.89;100.00;101446.84;5115834;28;20020;-35
2023/03/29 09:38:04;;;;;;;6.97;4.15;;;;;;;9.85;100.00;101440.19;5115455;28;20023;-35
2023/03/29 09:40:33;;;;;;;7.30;4.32;;;;;;;9.84;100.00;101449.34;5115031;28;20027;-35
2023/03/29 09:43:00;;;;;;;6.60;4.22;;;;;;;9.86;100.00;101460.78;5115617;28;20333;-35
2023/03/29 09:45:25;;;;;;;7.55;4.78;;;;;;;9.80;100.00;101464.31;5114847;28;20027;-36
2023/03/29 09:47:57;;;;;;;6.43;4.30;;;;;;;9.80;100.00;101464.31;5115341;28;20024;-36
2023/03/29 09:50:30;;;;;;;7.13;4.22;;;;;;;9.77;100.00;101459.34;5115814;28;20026;-36
2023/03/29 09:52:56;;;;;;;7.43;4.45;;;;;;;9.70;100.00;101455.81;5115248;28;20072;-36
2023/03/29 09:55:26;;;;;;;8.18;4.90;;;;;;;9.75;100.00;101473.03;5115213;28;20027;-36
2023/03/29 09:57:52;;;;;;;7.85;4.68;;;;;;;9.63;100.00;101465.81;5115091;28;20451;-36
2023/03/29 10:00:18;;;;;;;8.75;5.20;;;;;;;9.56;100.00;101473.91;5115344;28;20019;-36
2023/03/29 10:02:51;;;;;;;;;;;;;;;9.62;100.00;101477.66;5115706;28;20403;-36
2023/03/29 10:05:17;;;;;;;7.60;4.75;;;;;;;9.59;100.00;101472.66;5115285;28;19915;-36
2023/03/29 10:07:53;;;;;;;6.82;4.97;;;;;;;9.63;100.00;101472.03;5115427;28;20023;-36
2023/03/29 10:10:26;;;;;;;9.27;5.30;;;;;;;9.67;100.00;101475.16;5115772;28;20051;-36
2023/03/29 10:12:57;;;;;;;6.88;4.85;;;;;;;9.69;100.00;101460.38;5114821;27;20024;-36
2023/03/29 10:15:25;;;;;;;6.78;4.72;;;;;;;9.66;100.00;101463.53;5115134;28;20407;-36
2023/03/29 10:17:57;;;;;;;7.75;4.45;;;;;;;9.75;100.00;101456.00;5114438;28;20080;-36
2023/03/29 10:20:23;;;;;;;6.05;4.07;;;;;;;9.85;100.00;101447.47;5114634;28;20023;-36
2023/03/29 10:22:54;;;;;;;;;;;;;;;9.94;100.00;101451.63;5114779;27;20015;-35
2023/03/29 10:25:25;;;;;;;7.38;4.53;;;;;;;9.92;100.00;101441.03;5114589;28;19911;-36
2023/03/29 10:27:51;;;;;;;7.47;4.80;;;;;;;9.94;100.00;101457.84;5115390;28;20027;-36
2023/03/29 10:30:22;;;;;;;7.82;4.82;;;;;;;9.93;100.00;101453.50;5114367;28;20023;-36
2023/03/29 10:32:58;;;;;;;7.35;4.32;;;;;;;9.94;100.00;101443.50;5114553;28;20026;-36
2023/03/29 10:35:29;;;;;;;6.43;4.78;;;;;;;10.00;100.00;101446.22;5115358;28;20046;-36
2023/03/29 10:37:58;;;;;;;7.15;5.00;;;;;;;9.98;100.00;101437.47;5114427;28;20523;-36
2023/03/29 10:40:32;;;;;;;6.60;4.32;;;;;;;10.01;100.00;101442.47;5114269;28;20019;-36
2023/03/29 10:43:00;;;;;;;7.15;4.97;;;;;;;9.98;100.00;101444.75;5114310;28;20372;-36
2023/03/29 10:45:33;;;;;;;6.45;5.10;;;;;;;9.99;100.00;101441.81;5114622;28;20028;-35
2023/03/29 10:47:59;;;;;;;6.43;4.75;;;;;;;10.12;100.00;101440.97;5114863;28;20072;-35
2023/03/29 10:50:32;;;;;;;9.10;4.85;;;;;;;10.01;100.00;101418.16;5114796;28;20459;-35
2023/03/29 10:52:57;;;;;;;5.72;4.68;;;;;;;10.08;100.00;101407.28;5114518;28;20360;-36
2023/03/29 10:55:31;;;;;;;6.88;4.57;;;;;;;10.18;100.00;101404.13;5114527;28;20133;-36
2023/03/29 10:58:14;;;;;;;7.57;5.20;;;;;;;10.40;100.00;101410.94;5114281;28;20030;-36
2023/03/29 11:00:56;;;;;;;6.88;4.45;;;;;;;10.57;100.00;101401.25;5113950;28;20448;-35
2023/03/29 11:03:51;;;;;;;6.00;4.43;;;;;;;10.95;100.00;101403.09;5114707;28;20499;-35
2023/03/29 11:06:26;;;;;;;7.97;4.43;;;;;;;11.28;100.00;101388.47;5114053;28;20026;-35
2023/03/29 11:08:59;;;;;;;6.05;4.43;;;;;;;11.30;100.00;101395.28;5114545;28;20533;-35
2023/03/29 11:12:02;;;;;;;5.55;4.35;;;;;;;11.38;100.00;101394.19;5113676;28;20030;-35
2023/03/29 11:14:40;;;;;;;6.00;3.92;;;;;;;11.28;100.00;101385.75;5114042;28;20023;-35
2023/03/29 11:17:37;;;;;;;7.68;4.22;;;;;;;11.31;100.00;101391.53;5113734;28;20047;-35
2023/03/29 11:20:11;;;;;;;7.43;4.38;;;;;;;11.32;100.00;101386.94;5114571;28;20059;-35
2023/03/29 11:22:40;;;;;;;6.28;3.40;;;;;;;11.44;100.00;101376.22;5113850;28;20035;-35
2023/03/29 11:25:19;;;;;;;4.90;3.97;;;;;;;11.44;100.00;101365.38;5113902;28;20027;-35
2023/03/29 11:28:32;;;;;;;6.30;3.80;;;;;;;11.57;100.00;101371.50;5112913;28;20020;-35
2023/03/29 11:31:08;;;;;;;5.80;4.10;;;;;;;11.56;100.00;101361.69;5031300;28;20493;-35
2023/03/29 11:33:56;;;;;;;9.13;3.80;;;;;;;11.73;100.00;101391.75;5103097;28;20028;-35
2023/03/29 11:37:07;;;;;;;5.88;3.55;;;;;;;11.88;100.00;101396.81;5114370;28;20175;-35
2023/03/29 11:40:03;;;;;;;4.97;3.50;;;;;;;11.95;100.00;101396.72;5096074;28;20046;-35